Time;durP1;ratioP1;P1;durP2;ratioP2;P2;SDS_P1;SDS_P2;PMS_P1;PMS_P2;Temp;Humidity;BMP_temperature;BMP_pressure;BME280_temperature;BME280_humidity;BME280_pressure;Samples;Min_cycle;Max_cycle;Signal;HPM_P1;HPM_P2
2021/01/30 00:00:18;;;;;;;128.70;63.38;;;;;;;6.23;65.09;93361.91;4890579;29;20036;-79
2021/01/30 00:02:44;;;;;;;67.72;34.70;;;;;;;6.18;64.80;93367.00;4889826;29;20033;-78
2021/01/30 00:05:10;;;;;;;82.88;43.38;;;;;;;6.21;64.63;93361.38;4887405;29;20043;-79
2021/01/30 00:07:35;;;;;;;87.00;49.53;;;;;;;6.20;64.61;93354.66;4895006;29;20034;-79
2021/01/30 00:10:01;;;;;;;82.88;42.25;;;;;;;6.19;64.87;93361.63;4896128;29;20048;-78
2021/01/30 00:12:26;;;;;;;78.93;41.20;;;;;;;6.11;65.65;93356.06;4978432;23;20131;-78
2021/01/30 00:14:53;;;;;;;75.32;40.60;;;;;;;6.04;65.17;93356.25;4968356;28;20039;-78
2021/01/30 00:17:18;;;;;;;100.47;45.95;;;;;;;5.99;65.16;93364.69;4970327;28;20063;-80
2021/01/30 00:19:44;;;;;;;85.75;43.25;;;;;;;5.88;66.23;93357.06;4963550;28;20039;-79
2021/01/30 00:22:12;;;;;;;76.63;38.33;;;;;;;5.89;66.04;93351.66;4939297;29;20034;-79
2021/01/30 00:24:42;;;;;;;71.30;39.63;;;;;;;5.81;66.28;93341.72;4960725;29;20048;-79
2021/01/30 00:27:08;;;;;;;71.55;34.83;;;;;;;5.71;66.90;93336.47;4960470;28;20386;-79
2021/01/30 00:29:34;;;;;;;60.50;33.78;;;;;;;5.68;67.19;93336.91;4977917;28;20031;-79
2021/01/30 00:32:12;;;;;;;76.05;33.20;;;;;;;5.84;66.83;93336.09;4944447;28;20101;-79
2021/01/30 00:34:37;;;;;;;86.53;42.90;;;;;;;5.90;67.27;93330.03;4952067;29;20031;-80
2021/01/30 00:37:17;;;;;;;71.90;36.38;;;;;;;5.96;67.46;93325.69;4962352;28;20411;-80
2021/01/30 00:39:43;;;;;;;55.78;30.30;;;;;;;5.99;66.63;93318.25;4939550;29;20031;-79
2021/01/30 00:42:09;;;;;;;52.90;31.75;;;;;;;6.01;66.38;93310.28;4923965;29;20046;-79
2021/01/30 00:44:35;;;;;;;117.25;61.00;;;;;;;6.11;66.68;93294.91;4956479;29;20038;-79
2021/01/30 00:47:00;;;;;;;172.27;84.28;;;;;;;6.00;66.70;93293.22;4939393;29;20031;-80
2021/01/30 00:49:26;;;;;;;221.48;105.60;;;;;;;6.02;66.81;93283.47;4907666;29;20523;-79
2021/01/30 00:51:51;;;;;;;171.35;78.32;;;;;;;6.15;66.40;93285.66;4940461;28;20523;-79
2021/01/30 00:54:17;;;;;;;162.05;76.43;;;;;;;6.08;67.01;93279.16;4909045;29;20414;-80
2021/01/30 00:56:42;;;;;;;171.30;80.90;;;;;;;6.09;66.97;93280.69;4939839;28;20031;-80
2021/01/30 00:59:14;;;;;;;181.88;87.75;;;;;;;6.14;66.21;93270.44;4940295;29;20034;-80
2021/01/30 01:01:40;;;;;;;142.67;66.17;;;;;;;6.14;67.12;93273.00;4940442;29;20042;-79
2021/01/30 01:04:05;;;;;;;136.23;63.03;;;;;;;6.20;66.41;93259.16;4957370;29;20039;-79
2021/01/30 01:06:31;;;;;;;98.53;48.78;;;;;;;6.15;66.89;93264.25;4942942;29;20507;-79
2021/01/30 01:09:23;;;;;;;65.43;34.10;;;;;;;6.13;67.63;93258.53;4941549;29;20023;-79
2021/01/30 01:11:50;;;;;;;78.18;38.47;;;;;;;6.22;66.86;93251.94;4952395;28;20066;-79
2021/01/30 01:14:16;;;;;;;71.03;35.65;;;;;;;6.35;66.19;93236.06;4958146;29;20039;-79
2021/01/30 01:19:17;;;;;;;158.95;77.78;;;;;;;6.16;66.86;93229.66;4963309;23;20048;-79
2021/01/30 01:21:43;;;;;;;151.80;71.57;;;;;;;6.20;67.24;93226.38;4940920;29;20541;-79
2021/01/30 01:24:09;;;;;;;92.20;48.15;;;;;;;6.19;66.72;93219.66;4921710;29;20027;-79
2021/01/30 01:26:34;;;;;;;72.57;39.13;;;;;;;6.13;67.47;93217.25;4907765;29;20027;-79
2021/01/30 01:29:09;;;;;;;70.88;40.03;;;;;;;6.14;67.37;93216.22;4904795;29;20048;-78
2021/01/30 01:31:34;;;;;;;92.85;48.33;;;;;;;6.06;67.59;93212.28;4920761;29;20096;-79
2021/01/30 01:34:00;;;;;;;84.55;45.67;;;;;;;6.06;67.44;93201.19;4904399;29;20027;-79
2021/01/30 01:36:25;;;;;;;69.68;38.25;;;;;;;5.99;67.05;93196.22;4904307;29;20107;-79
2021/01/30 01:38:51;;;;;;;77.57;42.92;;;;;;;5.93;67.82;93189.44;5000844;23;20098;-79
2021/01/30 01:41:16;;;;;;;71.97;40.38;;;;;;;6.04;67.45;93185.19;4956586;29;20396;-79
2021/01/30 01:43:42;;;;;;;74.57;40.10;;;;;;;6.03;67.85;93192.16;4944976;29;20534;-79
2021/01/30 01:46:10;;;;;;;62.83;36.13;;;;;;;5.92;67.33;93183.50;4944043;29;20075;-79
2021/01/30 01:49:00;;;;;;;67.53;36.75;;;;;;;5.81;67.44;93171.50;4946313;29;20058;-79
2021/01/30 01:51:37;;;;;;;67.88;38.22;;;;;;;5.86;67.74;93173.38;4935795;29;20503;-79
2021/01/30 01:54:05;;;;;;;75.05;40.53;;;;;;;5.85;67.20;93169.97;4897596;29;20038;-79
2021/01/30 01:56:31;;;;;;;73.75;38.97;;;;;;;5.84;67.01;93165.84;4917274;29;20023;-79
2021/01/30 01:59:06;;;;;;;68.20;39.00;;;;;;;5.90;67.04;93159.00;4915971;29;20118;-79
2021/01/30 02:01:33;;;;;;;68.07;38.85;;;;;;;5.79;66.80;93160.66;4899583;29;20559;-78
2021/01/30 02:03:58;;;;;;;74.85;40.10;;;;;;;5.86;67.11;93145.78;4912959;29;20039;-78
2021/01/30 02:06:24;;;;;;;74.97;40.60;;;;;;;5.64;67.47;93129.53;4914733;29;20032;-79
2021/01/30 02:08:49;;;;;;;87.30;45.58;;;;;;;5.54;68.08;93144.91;4923254;29;20051;-78
2021/01/30 02:11:15;;;;;;;84.70;45.30;;;;;;;5.50;67.76;93128.34;4921236;29;20079;-79
2021/01/30 02:13:43;;;;;;;86.68;47.15;;;;;;;5.30;69.23;93129.69;4912873;29;20027;-79
2021/01/30 02:16:18;;;;;;;89.38;48.58;;;;;;;5.38;68.47;93125.91;4927074;29;20031;-79
2021/01/30 02:18:44;;;;;;;104.88;47.58;;;;;;;5.39;68.71;93112.00;4914592;29;20035;-79
2021/01/30 02:21:34;;;;;;;86.18;46.17;;;;;;;5.38;68.77;93121.53;4929691;29;20137;-79
2021/01/30 02:24:25;;;;;;;79.85;45.33;;;;;;;5.54;68.68;93124.28;4930761;29;20095;-79
2021/01/30 02:27:16;;;;;;;95.50;51.42;;;;;;;5.54;68.29;93134.59;4937498;29;20582;-79
2021/01/30 02:29:56;;;;;;;86.65;46.20;;;;;;;5.51;67.90;93120.38;4930331;29;20051;-79
2021/01/30 02:32:37;;;;;;;114.22;59.40;;;;;;;5.44;68.09;93130.09;4947916;29;20044;-79
2021/01/30 02:35:33;;;;;;;108.63;58.58;;;;;;;5.42;68.28;93117.47;4953730;29;20480;-79
2021/01/30 02:38:05;;;;;;;86.97;45.45;;;;;;;5.48;68.04;93122.66;4946926;29;20039;-78
2021/01/30 02:40:39;;;;;;;87.55;43.63;;;;;;;5.51;68.34;93130.69;4927952;29;20032;-78
2021/01/30 02:43:12;;;;;;;69.57;40.58;;;;;;;5.59;67.00;93126.91;4907985;29;20075;-77
2021/01/30 02:45:50;;;;;;;76.68;41.90;;;;;;;5.63;67.47;93127.97;4918029;29;20039;-77
2021/01/30 02:48:18;;;;;;;73.65;41.17;;;;;;;5.59;67.38;93132.84;4942382;23;20052;-77
2021/01/30 02:50:49;;;;;;;77.13;38.95;;;;;;;5.74;67.26;93134.81;4898835;29;20033;-77
2021/01/30 02:53:21;;;;;;;76.22;39.17;;;;;;;5.66;67.16;93132.66;4883472;29;20049;-77
2021/01/30 02:55:46;;;;;;;63.33;36.72;;;;;;;5.76;67.24;93132.75;4870594;29;20083;-77
2021/01/30 02:58:12;;;;;;;69.75;37.83;;;;;;;5.82;66.63;93134.38;4867893;29;20032;-78
2021/01/30 03:00:38;;;;;;;68.28;39.42;;;;;;;5.73;66.84;93139.19;4859851;29;20497;-77
2021/01/30 03:03:06;;;;;;;72.05;40.65;;;;;;;5.74;66.23;93139.97;4867709;29;20040;-78
2021/01/30 03:05:32;;;;;;;70.38;42.53;;;;;;;5.74;66.95;93150.28;4891260;29;20033;-78
2021/01/30 03:08:13;;;;;;;76.15;41.10;;;;;;;5.61;67.87;93145.50;4882079;29;20033;-78
2021/01/30 03:10:50;;;;;;;78.53;43.83;;;;;;;5.63;67.56;93148.63;4899718;29;20024;-78
2021/01/30 03:13:29;;;;;;;78.57;42.60;;;;;;;5.61;67.46;93150.66;4884173;29;20037;-78
2021/01/30 03:15:56;;;;;;;77.05;44.53;;;;;;;5.59;67.53;93155.28;4870406;29;20033;-79
2021/01/30 03:18:24;;;;;;;79.35;42.95;;;;;;;5.50;67.38;93159.28;4891740;29;20037;-78
2021/01/30 03:20:50;;;;;;;81.45;44.25;;;;;;;5.50;67.68;93160.06;4877639;29;20425;-79
2021/01/30 03:23:16;;;;;;;80.75;47.33;;;;;;;5.52;66.69;93152.09;4875388;29;20124;-79
2021/01/30 03:25:41;;;;;;;90.38;48.13;;;;;;;5.37;66.87;93152.72;4890907;29;20051;-78
2021/01/30 03:28:07;;;;;;;83.03;48.08;;;;;;;5.18;67.32;93157.34;4888671;29;20033;-78
2021/01/30 03:30:33;;;;;;;87.55;48.90;;;;;;;5.10;67.53;93150.84;4859309;29;20044;-80
2021/01/30 03:32:59;;;;;;;87.80;49.17;;;;;;;4.93;67.34;93154.47;4874685;29;20048;-78
2021/01/30 03:35:25;;;;;;;91.35;50.97;;;;;;;4.84;68.44;93161.81;4876434;29;20174;-78
2021/01/30 03:37:50;;;;;;;87.68;48.42;;;;;;;4.71;68.31;93156.97;4895699;29;20040;-78
2021/01/30 03:40:17;;;;;;;92.90;52.03;;;;;;;4.74;68.75;93162.47;4894782;29;20109;-78
2021/01/30 03:42:43;;;;;;;91.03;49.97;;;;;;;4.68;69.27;93163.38;4890640;29;20044;-78
2021/01/30 03:45:10;;;;;;;76.95;45.35;;;;;;;4.74;68.27;93170.19;4890013;29;20029;-78
2021/01/30 03:47:36;;;;;;;80.60;45.60;;;;;;;4.74;68.25;93166.84;4890541;29;20383;-78
2021/01/30 03:50:03;;;;;;;81.35;45.95;;;;;;;4.67;68.32;93169.56;4878987;29;20044;-79
2021/01/30 03:52:28;;;;;;;86.03;46.75;;;;;;;4.73;68.05;93165.28;4887940;29;20119;-79
2021/01/30 03:54:53;;;;;;;83.97;46.88;;;;;;;4.68;67.75;93171.09;4873729;29;20052;-79
2021/01/30 03:57:19;;;;;;;78.70;45.05;;;;;;;4.63;68.51;93171.03;4889885;29;20033;-78
2021/01/30 03:59:45;;;;;;;82.78;47.58;;;;;;;4.63;68.24;93170.25;4913222;29;20041;-78
2021/01/30 04:02:10;;;;;;;76.65;46.05;;;;;;;4.70;67.78;93171.66;4912290;29;20040;-78
2021/01/30 04:04:35;;;;;;;81.32;42.05;;;;;;;4.67;67.75;93174.69;4892744;29;20406;-79
2021/01/30 04:07:04;;;;;;;70.13;44.13;;;;;;;4.72;67.63;93174.78;4889370;29;20527;-79
2021/01/30 04:09:29;;;;;;;76.93;42.50;;;;;;;4.71;68.04;93162.91;4898867;29;20039;-79
2021/01/30 04:11:55;;;;;;;76.28;44.90;;;;;;;4.66;67.10;93175.72;4860119;29;20041;-79
2021/01/30 04:14:20;;;;;;;83.93;46.00;;;;;;;4.76;67.32;93164.78;4859089;29;20033;-79
2021/01/30 04:16:46;;;;;;;80.20;46.55;;;;;;;4.72;67.63;93166.28;4877044;29;20519;-79
2021/01/30 04:19:11;;;;;;;83.53;47.97;;;;;;;4.76;67.36;93157.84;4881981;29;20057;-79
2021/01/30 04:24:06;;;;;;;97.32;58.92;;;;;;;4.83;67.09;93155.88;5001663;23;20055;-80
2021/01/30 04:26:32;;;;;;;111.57;66.82;;;;;;;4.94;66.90;93156.81;4955560;29;20036;-81
2021/01/30 04:28:57;;;;;;;108.22;61.70;;;;;;;4.81;66.98;93163.06;4943963;28;20086;-81
2021/01/30 04:31:23;;;;;;;107.68;63.88;;;;;;;4.92;67.22;93155.50;4925580;29;20509;-81
2021/01/30 04:33:49;;;;;;;115.60;68.00;;;;;;;4.86;67.06;93159.78;4929423;29;20043;-80
2021/01/30 04:36:15;;;;;;;103.70;56.67;;;;;;;4.84;66.84;93151.50;4935160;29;20114;-81
2021/01/30 04:38:40;;;;;;;94.65;54.17;;;;;;;4.88;67.07;93157.75;4945111;29;20039;-81
2021/01/30 04:41:12;;;;;;;92.70;56.75;;;;;;;4.89;67.01;93155.97;4952711;29;20032;-81
2021/01/30 04:43:44;;;;;;;105.18;64.43;;;;;;;4.95;67.02;93160.94;4914708;29;20071;-81
2021/01/30 04:46:40;;;;;;;87.67;49.17;;;;;;;4.85;66.81;93168.50;4936687;29;20043;-81
2021/01/30 04:49:30;;;;;;;74.03;45.63;;;;;;;4.86;67.15;93164.91;4945393;29;20310;-82
2021/01/30 04:52:01;;;;;;;79.50;44.90;;;;;;;4.83;66.92;93173.13;4928903;29;20027;-81
2021/01/30 04:54:29;;;;;;;87.43;51.50;;;;;;;4.81;67.18;93175.94;4946099;29;20435;-81
2021/01/30 04:57:21;;;;;;;87.28;50.33;;;;;;;4.84;67.14;93187.56;4946069;29;20046;-81
2021/01/30 04:59:52;;;;;;;67.25;40.35;;;;;;;4.77;66.15;93192.88;4952784;29;20046;-80
2021/01/30 05:02:26;;;;;;;61.35;36.38;;;;;;;4.71;67.35;93193.03;4948315;29;20035;-81
2021/01/30 05:04:52;;;;;;;66.40;36.70;;;;;;;4.53;67.31;93183.75;4951690;29;20047;-81
2021/01/30 05:07:20;;;;;;;66.90;37.55;;;;;;;4.49;67.24;93195.53;4951829;29;20539;-80
2021/01/30 05:09:54;;;;;;;60.03;38.50;;;;;;;4.44;67.81;93200.59;4950877;29;20059;-81
2021/01/30 05:12:44;;;;;;;65.38;39.67;;;;;;;4.35;68.17;93194.28;4927074;29;20066;-81
2021/01/30 05:15:21;;;;;;;67.82;38.67;;;;;;;4.26;68.43;93195.69;4942498;29;20036;-80
2021/01/30 05:17:56;;;;;;;68.50;37.38;;;;;;;4.04;69.28;93198.91;4936967;29;20031;-81
2021/01/30 05:20:22;;;;;;;59.92;34.42;;;;;;;3.85;70.03;93195.75;4927439;29;20041;-81
2021/01/30 05:22:48;;;;;;;55.70;34.20;;;;;;;3.80;70.93;93200.81;4952845;29;20091;-81
2021/01/30 05:25:19;;;;;;;53.13;32.67;;;;;;;3.74;70.77;93198.34;4921101;29;20114;-81
2021/01/30 05:28:02;;;;;;;60.60;32.65;;;;;;;3.75;71.31;93211.00;4921098;29;20042;-80
2021/01/30 05:30:52;;;;;;;49.10;30.65;;;;;;;3.78;71.26;93213.09;4945128;29;20027;-80
2021/01/30 05:33:24;;;;;;;49.92;28.75;;;;;;;3.87;71.15;93218.66;4944506;29;20043;-81
2021/01/30 05:35:55;;;;;;;43.50;29.10;;;;;;;3.98;70.76;93215.25;4946107;29;20047;-81
2021/01/30 05:38:36;;;;;;;41.00;25.67;;;;;;;4.05;69.88;93212.53;4950834;29;20032;-80
2021/01/30 05:41:06;;;;;;;39.17;24.65;;;;;;;4.15;70.03;93226.38;4913299;29;20040;-81
2021/01/30 05:43:53;;;;;;;35.95;24.73;;;;;;;4.22;69.21;93216.69;4930936;29;20031;-81
2021/01/30 05:46:28;;;;;;;33.58;22.73;;;;;;;4.24;68.76;93228.59;4900698;29;20035;-80
2021/01/30 05:48:55;;;;;;;35.20;21.58;;;;;;;4.16;68.71;93235.66;4925627;29;20043;-81
2021/01/30 05:51:30;;;;;;;34.10;21.17;;;;;;;4.07;69.25;93239.63;4918083;29;20431;-80
2021/01/30 05:53:55;;;;;;;34.33;23.40;;;;;;;3.98;69.52;93243.53;4945809;29;20047;-81
2021/01/30 05:56:21;;;;;;;34.55;21.83;;;;;;;3.78;70.42;93245.75;4942761;29;20028;-79
2021/01/30 05:58:46;;;;;;;33.65;21.30;;;;;;;3.70;71.75;93253.81;4920874;29;20031;-81
2021/01/30 06:01:15;;;;;;;27.40;20.52;;;;;;;3.62;71.90;93260.09;4927412;29;20032;-80
2021/01/30 06:03:56;;;;;;;25.35;16.60;;;;;;;3.55;71.62;93262.75;4929342;29;20112;-80
2021/01/30 06:06:21;;;;;;;20.52;15.25;;;;;;;3.44;72.11;93268.72;4939876;29;20023;-81
2021/01/30 06:08:59;;;;;;;19.50;13.30;;;;;;;3.36;72.79;93279.31;4912072;29;20573;-81
2021/01/30 06:11:24;;;;;;;17.10;12.15;;;;;;;3.31;72.66;93286.94;4919884;29;20039;-81
2021/01/30 06:13:56;;;;;;;16.55;11.68;;;;;;;3.28;73.53;93297.66;4913015;29;20031;-81
2021/01/30 06:17:00;;;;;;;9.15;8.25;;;;;;;3.33;73.98;93300.34;4943324;29;20780;-81
2021/01/30 06:19:28;;;;;;;12.75;9.27;;;;;;;3.31;73.86;93299.78;4852556;29;20044;-81
2021/01/30 06:22:19;;;;;;;11.57;7.72;;;;;;;3.30;73.70;93309.28;4932480;29;20661;-81
2021/01/30 06:24:54;;;;;;;9.70;6.78;;;;;;;3.33;73.56;93310.63;4929117;29;20094;-80
2021/01/30 06:27:25;;;;;;;9.43;6.45;;;;;;;3.28;73.73;93316.44;4913538;29;20055;-81
2021/01/30 06:30:03;;;;;;;10.93;7.23;;;;;;;3.31;74.22;93310.84;4944123;29;20283;-81
2021/01/30 06:32:42;;;;;;;8.45;6.47;;;;;;;3.30;74.04;93316.19;4920329;29;20049;-81
2021/01/30 06:35:18;;;;;;;7.32;6.43;;;;;;;3.35;73.53;93324.00;4952858;29;20591;-81
2021/01/30 06:37:55;;;;;;;13.05;9.18;;;;;;;3.43;74.23;93328.81;4929518;29;20485;-81
2021/01/30 06:40:33;;;;;;;22.95;15.65;;;;;;;3.54;73.09;93325.44;4918262;29;20069;-81
2021/01/30 06:43:15;;;;;;;24.13;16.75;;;;;;;3.61;72.84;93318.41;4935144;23;21009;-80
2021/01/30 06:45:47;;;;;;;33.90;18.85;;;;;;;3.53;72.66;93310.25;4905358;29;20064;-81
2021/01/30 06:48:30;;;;;;;20.63;14.73;;;;;;;3.75;72.16;93331.03;4914859;29;20051;-81
2021/01/30 06:50:59;;;;;;;29.02;18.73;;;;;;;3.87;72.13;93336.94;4904799;29;20497;-81
2021/01/30 06:53:30;;;;;;;27.85;16.75;;;;;;;3.87;71.95;93335.13;4910690;29;20126;-81
2021/01/30 06:56:09;;;;;;;20.27;10.63;;;;;;;4.02;71.77;93344.94;4907753;29;20047;-82
2021/01/30 06:58:39;;;;;;;40.55;24.42;;;;;;;4.08;71.29;93320.91;4880431;29;20036;-81
2021/01/30 07:01:15;;;;;;;55.42;31.92;;;;;;;4.31;70.53;93342.41;4911197;29;20028;-80
2021/01/30 07:03:59;;;;;;;42.33;22.95;;;;;;;4.46;69.98;93347.84;5483266;23;20119;-80
2021/01/30 07:06:45;;;;;;;28.45;19.27;;;;;;;4.51;69.71;93338.41;4940254;29;20059;-81
2021/01/30 07:09:48;;;;;;;37.33;21.65;;;;;;;4.57;69.01;93347.03;4923639;29;20096;-80
2021/01/30 07:12:25;;;;;;;39.90;23.17;;;;;;;4.69;69.41;93347.75;4944362;23;20043;-81
2021/01/30 07:14:51;;;;;;;38.92;23.52;;;;;;;4.79;68.51;93352.31;4938838;29;20477;-81
2021/01/30 07:17:36;;;;;;;33.42;21.52;;;;;;;4.79;68.98;93353.06;4939517;29;20042;-82
2021/01/30 07:20:10;;;;;;;22.92;13.30;;;;;;;4.91;68.25;93358.19;4951098;29;20038;-81
2021/01/30 07:23:03;;;;;;;40.42;21.42;;;;;;;4.94;68.55;93362.09;4959808;23;20040;-82
2021/01/30 07:25:32;;;;;;;29.88;20.27;;;;;;;4.98;68.20;93374.25;4907505;29;20531;-81
2021/01/30 07:28:02;;;;;;;33.88;21.70;;;;;;;5.10;67.81;93379.34;4916591;29;20037;-82
2021/01/30 07:30:36;;;;;;;44.63;30.30;;;;;;;5.11;67.73;93380.91;4897537;29;20039;-78
2021/01/30 07:33:04;;;;;;;45.05;26.88;;;;;;;5.08;67.31;93379.59;4911800;29;20024;-79
2021/01/30 07:35:36;;;;;;;38.30;22.00;;;;;;;5.19;67.28;93374.59;4881180;29;20044;-78
2021/01/30 07:38:12;;;;;;;49.10;28.40;;;;;;;5.29;67.16;93385.06;4900956;29;20066;-78
2021/01/30 07:41:00;;;;;;;59.55;27.85;;;;;;;5.32;67.58;93393.09;4909291;29;20308;-78
2021/01/30 07:43:32;;;;;;;68.68;36.20;;;;;;;5.45;66.76;93397.19;4923161;29;20040;-77
2021/01/30 07:46:04;;;;;;;57.33;33.10;;;;;;;5.60;65.86;93401.78;4928817;29;20033;-77
2021/01/30 07:48:51;;;;;;;41.00;25.85;;;;;;;5.63;65.99;93399.50;4939723;29;20036;-79
2021/01/30 07:51:38;;;;;;;53.28;27.73;;;;;;;5.76;65.80;93405.38;4886787;29;20037;-81
2021/01/30 07:54:03;;;;;;;40.03;22.73;;;;;;;5.80;65.30;93407.22;4908424;29;20047;-78
2021/01/30 07:56:35;;;;;;;66.72;39.30;;;;;;;5.89;64.47;93411.00;4907152;29;20110;-78
2021/01/30 07:59:25;;;;;;;68.43;34.63;;;;;;;5.95;65.65;93422.97;4908646;29;20032;-78
2021/01/30 08:02:18;;;;;;;42.00;19.05;;;;;;;6.01;64.79;93414.25;4905879;29;20040;-77
2021/01/30 08:04:57;;;;;;;52.78;32.45;;;;;;;6.11;64.55;93407.69;4905549;29;20040;-78
2021/01/30 08:07:50;;;;;;;40.80;23.42;;;;;;;6.21;64.51;93418.94;4890050;29;20041;-77
2021/01/30 08:10:22;;;;;;;46.13;25.73;;;;;;;6.25;63.51;93424.41;4933665;29;20043;-80
2021/01/30 08:13:29;;;;;;;82.15;48.33;;;;;;;6.35;64.19;93424.53;4909170;29;20059;-80
2021/01/30 08:16:00;;;;;;;59.58;33.40;;;;;;;6.41;63.57;93441.63;4910321;29;20149;-79
2021/01/30 08:18:31;;;;;;;54.95;29.25;;;;;;;6.42;62.91;93443.19;4933928;29;20032;-80
2021/01/30 08:21:05;;;;;;;40.20;23.08;;;;;;;6.47;63.19;93447.63;4908336;29;20047;-79
2021/01/30 08:23:55;;;;;;;61.10;32.42;;;;;;;6.46;63.55;93446.84;4897632;29;20426;-79
2021/01/30 08:26:23;;;;;;;30.90;18.35;;;;;;;6.42;63.12;93456.09;4931514;29;20445;-79
2021/01/30 08:29:13;;;;;;;44.55;26.50;;;;;;;6.37;63.58;93450.88;4912574;29;20079;-79
2021/01/30 08:31:42;;;;;;;71.20;37.63;;;;;;;6.40;64.14;93468.47;4909596;29;20039;-83
2021/01/30 08:34:08;;;;;;;59.17;31.40;;;;;;;6.42;63.40;93470.81;4909978;29;20311;-79
2021/01/30 08:36:40;;;;;;;73.35;37.72;;;;;;;6.41;63.93;93475.22;4917406;29;20347;-79
2021/01/30 08:39:38;;;;;;;38.53;16.95;;;;;;;6.33;63.72;93468.63;4912300;29;20573;-78
2021/01/30 08:42:06;;;;;;;67.35;35.47;;;;;;;6.39;63.53;93487.56;4894064;29;20127;-79
2021/01/30 08:44:49;;;;;;;63.17;31.85;;;;;;;6.40;63.64;93491.72;4919813;29;20545;-79
2021/01/30 08:47:18;;;;;;;70.85;36.40;;;;;;;6.45;63.92;93496.94;4912107;29;20457;-79
2021/01/30 08:49:59;;;;;;;78.30;41.30;;;;;;;6.57;63.84;93500.22;4914247;29;20043;-79
2021/01/30 08:52:35;;;;;;;66.38;37.40;;;;;;;6.65;63.75;93500.81;4913600;29;20036;-78
2021/01/30 08:55:24;;;;;;;80.05;41.08;;;;;;;6.80;63.30;93504.34;4917157;29;20119;-79
2021/01/30 08:57:50;;;;;;;61.05;30.35;;;;;;;6.88;63.27;93503.19;4913711;29;20046;-78
2021/01/30 09:00:27;;;;;;;244.23;78.47;;;;;;;6.98;62.20;93505.84;4911091;29;20033;-79
2021/01/30 09:03:02;;;;;;;298.50;95.47;;;;;;;7.00;63.15;93509.00;4913185;29;20516;-80
2021/01/30 09:05:39;;;;;;;152.13;51.55;;;;;;;7.05;63.26;93511.63;4930728;29;20629;-77
2021/01/30 09:08:11;;;;;;;192.40;64.47;;;;;;;7.17;62.33;93516.69;4905238;29;20102;-77
2021/01/30 09:10:40;;;;;;;212.90;73.70;;;;;;;7.32;62.84;93516.03;4914309;29;20055;-77
2021/01/30 09:13:16;;;;;;;264.60;89.45;;;;;;;7.33;61.72;93515.06;4931763;29;20032;-79
2021/01/30 09:15:41;;;;;;;169.70;63.53;;;;;;;7.39;60.97;93527.00;4894731;29;20050;-79
2021/01/30 09:18:42;;;;;;;199.02;76.60;;;;;;;7.41;61.59;93517.97;4913175;29;20040;-79
2021/01/30 09:21:32;;;;;;;258.92;101.05;;;;;;;7.45;61.85;93524.22;4905016;29;20057;-80
2021/01/30 09:24:16;;;;;;;142.00;62.92;;;;;;;7.50;61.24;93523.50;4942526;23;20043;-81
2021/01/30 09:29:18;;;;;;;192.60;86.75;;;;;;;7.47;61.44;93523.97;5011958;23;20097;-84
2021/01/30 09:31:46;;;;;;;117.72;48.58;;;;;;;7.46;61.26;93525.00;4916715;29;20067;-81
2021/01/30 09:34:20;;;;;;;76.28;33.58;;;;;;;7.57;60.98;93531.84;4939271;28;20023;-83
2021/01/30 09:39:28;;;;;;;49.38;23.90;;;;;;;7.58;60.25;93527.44;4908473;29;20084;-82
2021/01/30 09:42:08;;;;;;;48.10;22.08;;;;;;;7.63;60.46;93512.75;4910238;29;20041;-82
2021/01/30 09:44:34;;;;;;;65.22;31.63;;;;;;;7.78;60.42;93515.47;4911070;29;20103;-81
2021/01/30 09:47:03;;;;;;;65.00;32.97;;;;;;;7.99;60.42;93498.31;4918636;29;20048;-80
2021/01/30 09:49:45;;;;;;;64.32;30.92;;;;;;;8.23;59.19;93514.25;4911766;29;20040;-79
2021/01/30 09:52:13;;;;;;;65.93;38.75;;;;;;;8.31;59.08;93519.00;4902542;29;20512;-79
2021/01/30 09:54:39;;;;;;;76.57;48.90;;;;;;;8.35;59.56;93520.09;4902702;29;20067;-80
2021/01/30 09:57:08;;;;;;;45.40;25.90;;;;;;;8.38;59.27;93505.84;4920846;29;20477;-80
2021/01/30 09:59:36;;;;;;;56.47;32.95;;;;;;;8.38;58.94;93504.03;4918742;29;20040;-80
2021/01/30 10:02:42;;;;;;;68.53;39.47;;;;;;;8.53;59.62;93510.34;4923332;29;20036;-79
2021/01/30 10:05:10;;;;;;;75.80;41.72;;;;;;;8.71;59.40;93502.16;4930560;29;20063;-78
2021/01/30 10:07:35;;;;;;;55.20;34.80;;;;;;;8.76;59.15;93503.97;4930078;29;20033;-79
2021/01/30 10:10:01;;;;;;;45.67;27.65;;;;;;;8.71;59.22;93502.94;4932302;29;20697;-81
2021/01/30 10:15:29;;;;;;;17.80;10.82;;;;;;;8.68;62.31;93503.44;4931831;29;20103;-80
2021/01/30 10:17:54;;;;;;;12.20;8.32;;;;;;;8.82;66.04;93497.81;4927242;29;20101;-83
2021/01/30 10:20:20;;;;;;;16.40;9.80;;;;;;;8.87;62.65;93506.38;4908076;29;20057;-83
2021/01/30 10:23:32;;;;;;;20.45;13.95;;;;;;;8.83;61.48;93510.50;4924325;29;20042;-82
2021/01/30 10:26:18;;;;;;;18.63;10.55;;;;;;;8.81;58.86;93497.03;4921213;29;20095;-82
2021/01/30 10:28:50;;;;;;;12.32;9.15;;;;;;;8.72;59.28;93506.28;4919080;29;20040;-77
2021/01/30 10:31:18;;;;;;;16.63;12.27;;;;;;;8.59;59.30;93504.94;4918669;29;20035;-79
2021/01/30 10:34:03;;;;;;;20.05;11.35;;;;;;;8.38;60.77;93505.84;4901923;29;20118;-81
2021/01/30 10:36:32;;;;;;;37.80;21.05;;;;;;;8.23;60.92;93503.91;4916318;29;20107;-84
2021/01/30 10:38:57;;;;;;;44.22;22.90;;;;;;;8.03;62.40;93508.94;4924148;29;20040;-81
2021/01/30 10:41:23;;;;;;;28.42;17.40;;;;;;;8.01;61.31;93508.41;4920729;29;20802;-79
2021/01/30 10:43:56;;;;;;;23.77;16.63;;;;;;;8.07;60.84;93502.25;4905031;29;20028;-83
2021/01/30 10:49:20;;;;;;;24.65;16.95;;;;;;;7.94;63.17;93518.97;5304322;23;20051;-84
2021/01/30 10:58:16;;;;;;;31.20;17.75;;;;;;;7.92;61.55;93520.25;4932110;29;20078;-85
2021/01/30 11:06:42;;;;;;;34.58;21.15;;;;;;;7.92;62.30;93535.75;5119739;23;20070;-85
2021/01/30 11:09:30;;;;;;;13.15;9.57;;;;;;;7.78;60.96;93523.22;4917800;29;20094;-84
2021/01/30 11:12:10;;;;;;;18.00;10.18;;;;;;;7.73;61.47;93523.19;4932936;28;20040;-85
2021/01/30 11:18:18;;;;;;;23.55;13.55;;;;;;;7.69;62.52;93527.31;4954449;28;20054;-85
2021/01/30 11:20:46;;;;;;;25.67;18.55;;;;;;;7.72;62.33;93526.03;4906743;29;20027;-84
2021/01/30 11:23:34;;;;;;;31.58;21.52;;;;;;;7.75;62.43;93531.47;4914372;29;20055;-85
2021/01/30 11:26:12;;;;;;;21.13;14.95;;;;;;;7.79;62.65;93542.91;4961252;29;20039;-85
2021/01/30 11:28:37;;;;;;;17.50;9.43;;;;;;;7.79;61.86;93527.38;4971717;28;20042;-87
2021/01/30 11:31:03;;;;;;;14.05;9.60;;;;;;;7.83;60.77;93549.16;4925110;28;20024;-87
2021/01/30 11:33:35;;;;;;;22.77;12.27;;;;;;;7.85;61.01;93545.56;4909623;29;20059;-83
2021/01/30 11:36:00;;;;;;;14.50;10.98;;;;;;;7.70;61.03;93556.53;4892775;29;20047;-83
2021/01/30 11:38:27;;;;;;;10.30;7.90;;;;;;;7.72;61.81;93552.69;4918596;29;20454;-83
2021/01/30 11:40:57;;;;;;;14.80;10.05;;;;;;;7.73;62.03;93567.19;4913113;29;20039;-82
2021/01/30 11:43:23;;;;;;;15.98;9.52;;;;;;;7.69;61.75;93557.56;4903957;29;20517;-82
2021/01/30 11:45:49;;;;;;;14.02;8.00;;;;;;;7.68;62.03;93558.59;4891979;29;20047;-84
2021/01/30 11:48:14;;;;;;;15.73;7.75;;;;;;;7.65;61.51;93553.91;4922981;29;20574;-84
2021/01/30 11:50:40;;;;;;;15.75;10.32;;;;;;;7.64;62.68;93568.63;4923075;29;20594;-82
2021/01/30 11:53:09;;;;;;;11.35;7.40;;;;;;;7.68;62.25;93574.13;4905193;29;20106;-83
2021/01/30 11:55:34;;;;;;;11.02;7.35;;;;;;;7.68;61.95;93569.72;4923567;29;20036;-83
2021/01/30 11:58:00;;;;;;;12.25;7.38;;;;;;;7.66;62.03;93576.16;4923710;29;20073;-84
2021/01/30 12:00:25;;;;;;;8.73;6.82;;;;;;;7.60;61.51;93577.91;4903837;29;20122;-83
2021/01/30 12:02:51;;;;;;;13.57;9.25;;;;;;;7.63;62.36;93592.94;4928780;29;20039;-83
2021/01/30 12:05:16;;;;;;;12.95;9.20;;;;;;;7.68;61.79;93593.00;4901609;29;20035;-83
2021/01/30 12:07:42;;;;;;;13.45;8.55;;;;;;;7.69;61.62;93596.38;4902150;29;20114;-83
2021/01/30 12:10:09;;;;;;;25.05;14.27;;;;;;;7.70;61.60;93605.69;4922350;29;20042;-82
2021/01/30 12:12:34;;;;;;;14.45;10.48;;;;;;;7.71;62.01;93592.53;4924009;29;20122;-82
2021/01/30 12:15:00;;;;;;;13.38;10.00;;;;;;;7.79;62.26;93606.81;4915154;29;20035;-82
2021/01/30 12:17:39;;;;;;;11.40;8.45;;;;;;;7.78;62.55;93592.31;4957784;29;20038;-82
2021/01/30 12:20:12;;;;;;;18.02;11.48;;;;;;;7.86;62.14;93599.66;4918198;29;20066;-87